createdAt,value
2023-01-03T00:00:08.684Z,10.75
2023-01-03T00:02:57.501Z,10.71
2023-01-03T00:05:25.173Z,10.77
2023-01-03T00:07:52.630Z,10.81
2023-01-03T00:10:20.160Z,10.82
2023-01-03T00:12:49.812Z,10.74
2023-01-03T00:15:17.394Z,10.61
2023-01-03T00:17:45.145Z,10.49
2023-01-03T00:20:14.542Z,10.41
2023-01-03T00:22:43.131Z,10.40
2023-01-03T00:25:11.749Z,10.33
2023-01-03T00:27:39.352Z,10.15
2023-01-03T00:30:08.224Z,9.97
2023-01-03T00:32:36.050Z,9.82
2023-01-03T00:35:05.858Z,9.67
2023-01-03T00:37:33.307Z,9.57
2023-01-03T00:40:03.402Z,9.48
2023-01-03T00:42:51.899Z,9.40
2023-01-03T00:45:20.431Z,9.29
2023-01-03T00:47:49.668Z,9.22
2023-01-03T00:50:18.682Z,9.20
2023-01-03T00:56:40.084Z,9.18
2023-01-03T00:59:08.788Z,9.22
2023-01-03T01:01:46.258Z,9.26
2023-01-03T01:04:18.368Z,9.17
2023-01-03T01:06:47.747Z,9.07
2023-01-03T01:09:17.956Z,9.01
2023-01-03T01:11:45.862Z,9.04
2023-01-03T01:14:22.473Z,9.11
2023-01-03T01:16:52.254Z,9.16
2023-01-03T01:19:22.289Z,9.15
2023-01-03T01:21:49.929Z,9.25
2023-01-03T01:24:18.457Z,9.33
2023-01-03T01:26:47.862Z,9.37
2023-01-03T01:29:18.109Z,9.37
2023-01-03T01:31:46.283Z,9.40
2023-01-03T01:34:15.645Z,9.51
2023-01-03T01:36:44.864Z,9.59
2023-01-03T01:39:14.244Z,9.58
2023-01-03T01:42:02.204Z,9.48
2023-01-03T01:44:44.601Z,9.37
2023-01-03T01:47:24.896Z,9.36
2023-01-03T01:50:01.460Z,9.29
2023-01-03T01:56:57.437Z,9.26
2023-01-03T01:59:25.050Z,9.30
2023-01-03T02:01:52.773Z,9.35
2023-01-03T02:04:26.423Z,9.36
2023-01-03T02:06:55.760Z,9.24
2023-01-03T02:09:23.534Z,9.17
2023-01-03T02:12:16.034Z,9.17
2023-01-03T02:14:54.846Z,9.15
2023-01-03T02:17:25.052Z,9.07
2023-01-03T02:20:21.670Z,8.99
2023-01-03T02:23:05.198Z,8.87
2023-01-03T02:25:38.618Z,8.72
2023-01-03T02:28:24.586Z,8.66
2023-01-03T02:31:09.039Z,8.58
2023-01-03T02:33:45.676Z,8.45
2023-01-03T02:36:21.745Z,8.30
2023-01-03T02:38:54.296Z,8.21
2023-01-03T02:41:21.726Z,8.13
2023-01-03T02:43:58.701Z,8.05
2023-01-03T02:46:27.255Z,7.99
2023-01-03T02:48:54.854Z,7.98
2023-01-03T02:55:08.453Z,7.96
2023-01-03T02:57:38.640Z,7.84
2023-01-03T03:00:12.712Z,7.72
2023-01-03T03:02:44.108Z,7.71
2023-01-03T03:05:14.905Z,7.77
2023-01-03T03:07:42.406Z,7.77
2023-01-03T03:10:30.224Z,7.76
2023-01-03T03:13:24.830Z,7.79
2023-01-03T03:15:57.904Z,7.69
2023-01-03T03:18:35.389Z,7.62
2023-01-03T03:21:25.427Z,7.58
2023-01-03T03:24:13.241Z,7.53
2023-01-03T03:26:42.627Z,7.45
2023-01-03T03:29:13.357Z,7.42
2023-01-03T03:31:43.375Z,7.45
2023-01-03T03:34:10.912Z,7.50
2023-01-03T03:37:00.738Z,7.49
2023-01-03T03:39:49.889Z,7.43
2023-01-03T03:42:37.319Z,7.41
2023-01-03T03:45:26.190Z,7.41
2023-01-03T03:48:00.391Z,7.36
2023-01-03T03:50:51.304Z,7.33
2023-01-03T03:53:22.151Z,7.25
2023-01-03T03:55:52.540Z,7.22
2023-01-03T03:58:21.822Z,7.26
2023-01-03T04:00:51.791Z,7.26
2023-01-03T04:03:22.141Z,7.24
2023-01-03T04:05:53.562Z,7.14
2023-01-03T04:08:21.550Z,7.07
2023-01-03T04:10:50.248Z,7.05
2023-01-03T04:13:17.729Z,6.97
2023-01-03T04:15:45.038Z,6.88
2023-01-03T04:18:12.599Z,6.84
2023-01-03T04:20:40.060Z,6.82
2023-01-03T04:23:08.401Z,6.76
2023-01-03T04:25:35.844Z,6.67
2023-01-03T04:28:03.215Z,6.62
2023-01-03T04:30:30.684Z,6.62
2023-01-03T04:32:58.045Z,6.61
2023-01-03T04:35:25.457Z,6.62
2023-01-03T04:37:54.106Z,6.69
2023-01-03T04:40:24.394Z,6.73
2023-01-03T04:43:11.608Z,6.72
2023-01-03T04:45:40.464Z,6.73
2023-01-03T04:48:09.715Z,6.73
2023-01-03T04:50:40.303Z,6.72
2023-01-03T04:53:34.029Z,6.69
2023-01-03T04:56:01.527Z,6.71
2023-01-03T04:58:28.868Z,6.74
2023-01-03T05:01:01.631Z,6.78
2023-01-03T05:03:29.985Z,6.80
2023-01-03T05:05:58.717Z,6.82
2023-01-03T05:08:26.882Z,6.83
2023-01-03T05:10:56.112Z,6.82
2023-01-03T05:13:25.498Z,6.80
2023-01-03T05:15:53.285Z,6.78
2023-01-03T05:18:22.577Z,6.81
2023-01-03T05:21:10.115Z,6.83
2023-01-03T05:23:56.378Z,6.85
2023-01-03T05:26:24.140Z,6.86
2023-01-03T05:28:53.179Z,6.88
2023-01-03T05:31:22.007Z,6.90
2023-01-03T05:33:51.482Z,6.91
2023-01-03T05:36:20.189Z,6.90
2023-01-03T05:38:47.877Z,6.93
2023-01-03T05:41:35.916Z,6.93
2023-01-03T05:44:03.726Z,6.95
2023-01-03T05:46:32.015Z,6.98
2023-01-03T05:49:00.125Z,6.98
2023-01-03T05:51:57.502Z,6.97
2023-01-03T05:54:25.645Z,6.98
2023-01-03T05:56:53.138Z,6.98
2023-01-03T05:59:24.269Z,6.98
2023-01-03T06:01:51.958Z,6.98
2023-01-03T06:04:19.618Z,6.98
2023-01-03T06:06:48.353Z,6.96
2023-01-03T06:09:16.439Z,6.96
2023-01-03T06:11:44.583Z,6.97
2023-01-03T06:14:12.160Z,6.96
2023-01-03T06:16:58.241Z,6.94
2023-01-03T06:19:26.773Z,6.94
2023-01-03T06:21:54.155Z,6.92
2023-01-03T06:24:22.537Z,6.91
2023-01-03T06:26:50.636Z,6.91
2023-01-03T06:29:19.962Z,6.87
2023-01-03T06:31:47.531Z,6.83
2023-01-03T06:34:16.509Z,6.80
2023-01-03T06:36:44.232Z,6.78
2023-01-03T06:39:12.279Z,6.76
2023-01-03T06:41:40.075Z,6.75
2023-01-03T06:44:08.263Z,6.75
2023-01-03T06:46:56.965Z,6.70
2023-01-03T06:49:43.685Z,6.62
2023-01-03T06:52:56.396Z,6.53
2023-01-03T06:55:25.139Z,6.42
2023-01-03T06:57:53.056Z,6.39
2023-01-03T07:00:20.540Z,6.36
2023-01-03T07:02:48.514Z,6.35
2023-01-03T07:05:17.463Z,6.33
2023-01-03T07:07:45.199Z,6.32
2023-01-03T07:10:13.716Z,6.32
2023-01-03T07:13:00.423Z,6.33
2023-01-03T07:15:28.630Z,6.35
2023-01-03T07:17:56.524Z,6.37
2023-01-03T07:20:24.385Z,6.41
2023-01-03T07:22:53.283Z,6.45
2023-01-03T07:25:21.517Z,6.47
2023-01-03T07:28:01.849Z,6.46
2023-01-03T07:30:36.926Z,6.46
2023-01-03T07:33:05.066Z,6.44
2023-01-03T07:35:33.635Z,6.43
2023-01-03T07:38:05.625Z,6.43
2023-01-03T07:40:35.011Z,6.57
2023-01-03T07:43:21.285Z,6.98
2023-01-03T07:45:49.611Z,6.96
2023-01-03T07:48:18.544Z,6.80
2023-01-03T07:50:46.653Z,6.83
2023-01-03T07:53:18.271Z,6.87
2023-01-03T07:55:47.367Z,6.92
2023-01-03T07:58:17.260Z,7.21
2023-01-03T08:00:44.971Z,8.18
2023-01-03T08:03:12.544Z,8.91
2023-01-03T08:05:40.799Z,8.85
2023-01-03T08:08:09.081Z,8.45
2023-01-03T08:10:56.381Z,8.32
2023-01-03T08:13:24.939Z,8.01
2023-01-03T08:15:58.054Z,7.78
2023-01-03T08:18:26.900Z,7.52
2023-01-03T08:20:56.943Z,7.40
2023-01-03T08:23:26.407Z,7.22
2023-01-03T08:26:03.429Z,7.08
2023-01-03T08:28:31.824Z,7.16
2023-01-03T08:31:13.545Z,7.21
2023-01-03T08:33:44.278Z,7.25
2023-01-03T08:36:12.878Z,7.23
2023-01-03T08:38:47.554Z,7.17
2023-01-03T08:41:19.165Z,7.09
2023-01-03T08:43:47.167Z,6.99
2023-01-03T08:46:16.341Z,6.99
2023-01-03T08:48:44.045Z,7.16
2023-01-03T08:51:11.839Z,7.39
2023-01-03T08:53:39.815Z,7.57
2023-01-03T08:56:07.727Z,7.63
2023-01-03T08:58:35.928Z,7.58
2023-01-03T09:01:06.616Z,7.97
2023-01-03T09:03:34.577Z,10.09
2023-01-03T09:06:03.462Z,11.36
2023-01-03T09:08:31.856Z,11.43
2023-01-03T09:11:03.655Z,12.69
2023-01-03T09:13:31.144Z,12.95
2023-01-03T09:16:06.055Z,12.10
2023-01-03T09:18:34.395Z,11.66
2023-01-03T09:21:05.400Z,11.73
2023-01-03T09:23:33.997Z,11.87
2023-01-03T09:26:01.606Z,11.85
2023-01-03T09:28:29.090Z,11.51
2023-01-03T09:30:57.172Z,11.08
2023-01-03T09:33:25.581Z,10.74
2023-01-03T09:35:54.319Z,10.32
2023-01-03T09:38:22.765Z,10.03
2023-01-03T09:41:01.174Z,10.52
2023-01-03T09:43:40.797Z,11.45
2023-01-03T09:46:17.638Z,11.86
2023-01-03T09:48:45.877Z,11.38
2023-01-03T09:51:46.370Z,11.73
2023-01-03T09:54:38.057Z,14.13
2023-01-03T09:57:33.593Z,15.73
2023-01-03T10:00:20.059Z,15.37
2023-01-03T10:03:08.840Z,15.56
2023-01-03T10:05:36.512Z,16.16
2023-01-03T10:08:21.234Z,15.70
2023-01-03T10:10:48.800Z,15.80
2023-01-03T10:13:20.428Z,14.90
2023-01-03T10:15:59.143Z,14.15
2023-01-03T10:18:35.202Z,13.40
2023-01-03T10:21:22.720Z,12.49
2023-01-03T10:23:50.516Z,11.70
2023-01-03T10:26:19.182Z,11.30
2023-01-03T10:28:47.650Z,10.86
2023-01-03T10:31:19.514Z,10.82
2023-01-03T10:33:49.230Z,10.61
2023-01-03T10:36:19.949Z,10.11
2023-01-03T10:38:52.928Z,9.68
2023-01-03T10:41:46.045Z,9.34
2023-01-03T10:44:29.533Z,9.02
2023-01-03T10:46:59.050Z,8.95
2023-01-03T10:49:31.195Z,8.66
2023-01-03T10:56:19.852Z,8.82
2023-01-03T10:58:48.641Z,8.71
2023-01-03T11:01:19.164Z,8.52
2023-01-03T11:04:24.245Z,8.44
2023-01-03T11:07:16.480Z,8.51
2023-01-03T11:09:54.273Z,8.51
2023-01-03T11:12:39.613Z,8.42
2023-01-03T11:15:24.376Z,8.25
2023-01-03T11:17:59.033Z,8.34
2023-01-03T11:20:33.307Z,8.41
2023-01-03T11:23:08.103Z,8.49
2023-01-03T11:25:54.115Z,8.61
2023-01-03T11:28:32.305Z,8.82
2023-01-03T11:31:20.884Z,8.76
2023-01-03T11:34:02.646Z,8.53
2023-01-03T11:36:30.698Z,8.48
2023-01-03T11:39:24.565Z,8.38
2023-01-03T11:42:03.614Z,8.33
2023-01-03T11:44:35.446Z,8.40
2023-01-03T11:47:23.627Z,8.33
2023-01-03T11:49:52.565Z,8.28
2023-01-03T11:56:18.241Z,8.09
2023-01-03T11:58:55.668Z,7.97
2023-01-03T12:01:24.650Z,7.88
2023-01-03T12:03:58.528Z,7.82
2023-01-03T12:06:35.205Z,7.82
2023-01-03T12:09:04.017Z,7.76
2023-01-03T12:11:31.427Z,7.79
2023-01-03T12:13:58.817Z,7.89
2023-01-03T12:16:30.269Z,7.92
2023-01-03T12:19:03.495Z,7.90
2023-01-03T12:21:35.356Z,7.91
2023-01-03T12:24:07.859Z,7.96
2023-01-03T12:26:38.157Z,8.14
2023-01-03T12:29:11.619Z,8.14
2023-01-03T12:32:00.306Z,7.93
2023-01-03T12:34:35.032Z,7.78
2023-01-03T12:37:17.103Z,7.71
2023-01-03T12:39:54.635Z,7.75
2023-01-03T12:42:32.887Z,7.77
2023-01-03T12:45:00.421Z,7.78
2023-01-03T12:47:39.833Z,7.73
2023-01-03T12:50:15.183Z,7.64
2023-01-03T12:52:56.214Z,7.61
2023-01-03T12:55:38.329Z,7.76
2023-01-03T12:58:06.393Z,7.77
2023-01-03T13:00:43.615Z,7.85
2023-01-03T13:03:21.867Z,7.85
2023-01-03T13:06:01.956Z,7.73
2023-01-03T13:08:46.418Z,7.67
2023-01-03T13:11:37.133Z,7.52
2023-01-03T13:14:07.046Z,7.44
2023-01-03T13:16:34.964Z,7.41
2023-01-03T13:19:21.331Z,7.38
2023-01-03T13:21:51.186Z,7.36
2023-01-03T13:24:38.506Z,7.32
2023-01-03T13:27:22.357Z,7.43
2023-01-03T13:29:49.871Z,7.49
2023-01-03T13:32:22.635Z,7.58
2023-01-03T13:35:10.284Z,7.62
2023-01-03T13:37:46.344Z,7.56
2023-01-03T13:40:14.602Z,7.57
2023-01-03T13:42:45.178Z,7.69
2023-01-03T13:45:17.068Z,7.60
2023-01-03T13:47:48.976Z,7.49
2023-01-03T13:50:19.533Z,7.43
2023-01-03T13:53:02.200Z,7.31
2023-01-03T13:55:35.898Z,7.29
2023-01-03T13:58:23.305Z,7.21
2023-01-03T14:00:53.443Z,7.04
2023-01-03T14:03:39.379Z,6.91
2023-01-03T14:06:28.082Z,6.75
2023-01-03T14:08:57.158Z,6.63
2023-01-03T14:11:44.434Z,6.56
2023-01-03T14:14:14.487Z,6.44
2023-01-03T14:16:45.910Z,6.37
2023-01-03T14:19:23.276Z,6.29
2023-01-03T14:21:50.731Z,6.21
2023-01-03T14:24:22.526Z,6.12
2023-01-03T14:26:50.072Z,6.05
2023-01-03T14:29:20.455Z,6.00
2023-01-03T14:31:49.624Z,5.97
2023-01-03T14:34:20.671Z,5.95
2023-01-03T14:36:48.112Z,5.91
2023-01-03T14:39:23.323Z,5.88
2023-01-03T14:41:50.776Z,5.86
2023-01-03T14:44:18.111Z,5.85
2023-01-03T14:46:53.733Z,5.84
2023-01-03T14:49:33.273Z,5.82
2023-01-03T14:52:25.959Z,5.80
2023-01-03T14:55:01.609Z,5.77
2023-01-03T14:57:32.102Z,5.75
2023-01-03T15:00:02.201Z,5.76
2023-01-03T15:02:35.716Z,5.72
2023-01-03T15:05:05.048Z,5.71
2023-01-03T15:07:34.705Z,5.71
2023-01-03T15:10:25.348Z,5.71
2023-01-03T15:13:00.738Z,5.68
2023-01-03T15:15:38.361Z,5.65
2023-01-03T15:18:09.419Z,5.62
2023-01-03T15:20:39.652Z,5.59
2023-01-03T15:23:18.211Z,5.56
2023-01-03T15:25:45.934Z,5.53
2023-01-03T15:28:23.822Z,5.49
2023-01-03T15:30:52.314Z,5.48
2023-01-03T15:33:22.011Z,5.44
2023-01-03T15:35:50.724Z,5.38
2023-01-03T15:38:20.332Z,5.29
2023-01-03T15:40:49.162Z,5.22
2023-01-03T15:43:24.262Z,5.11
2023-01-03T15:46:01.353Z,5.00
2023-01-03T15:48:29.765Z,4.92
2023-01-03T15:50:57.387Z,4.82
2023-01-03T15:53:25.145Z,4.77
2023-01-03T15:55:56.299Z,4.74
2023-01-03T15:58:25.813Z,4.77
2023-01-03T16:00:56.193Z,4.83
2023-01-03T16:03:26.943Z,4.87
2023-01-03T16:05:55.450Z,4.87
2023-01-03T16:08:30.605Z,4.88
2023-01-03T16:10:59.980Z,4.90
2023-01-03T16:13:29.108Z,4.92
2023-01-03T16:15:57.618Z,4.93
2023-01-03T16:18:30.565Z,4.94
2023-01-03T16:20:58.102Z,4.98
2023-01-03T16:23:28.110Z,5.00
2023-01-03T16:25:57.702Z,4.99
2023-01-03T16:28:25.869Z,5.00
2023-01-03T16:31:01.619Z,4.96
2023-01-03T16:33:31.300Z,4.91
2023-01-03T16:35:59.966Z,4.80
2023-01-03T16:38:28.625Z,4.74
2023-01-03T16:40:56.665Z,4.67
2023-01-03T16:43:27.805Z,4.61
2023-01-03T16:45:58.478Z,4.55
2023-01-03T16:48:28.425Z,4.46
2023-01-03T16:50:57.017Z,4.42
2023-01-03T16:53:50.441Z,4.40
2023-01-03T16:56:18.249Z,4.35
2023-01-03T16:58:45.891Z,4.30
2023-01-03T17:01:14.179Z,4.26
2023-01-03T17:03:43.862Z,4.23
2023-01-03T17:06:21.556Z,4.21
2023-01-03T17:08:49.075Z,4.18
2023-01-03T17:11:17.547Z,4.16
2023-01-03T17:13:47.171Z,4.14
2023-01-03T17:16:17.073Z,4.13
2023-01-03T17:18:46.159Z,4.13
2023-01-03T17:21:25.631Z,4.11
2023-01-03T17:23:56.288Z,4.13
2023-01-03T17:26:25.295Z,4.13
2023-01-03T17:28:55.687Z,4.10
2023-01-03T17:31:25.283Z,4.08
2023-01-03T17:33:56.258Z,4.06
2023-01-03T17:36:25.674Z,4.05
2023-01-03T17:38:54.735Z,4.03
2023-01-03T17:41:24.333Z,3.99
2023-01-03T17:43:52.181Z,3.97
2023-01-03T17:46:39.626Z,3.93
2023-01-03T17:49:25.801Z,3.91
2023-01-03T17:52:00.121Z,3.85
2023-01-03T17:54:29.129Z,3.84
2023-01-03T17:56:58.008Z,3.86
2023-01-03T17:59:26.205Z,3.87
2023-01-03T18:01:55.740Z,3.88
2023-01-03T18:04:38.293Z,3.93
2023-01-03T18:07:26.493Z,3.99
2023-01-03T18:09:55.187Z,4.04
2023-01-03T18:12:26.369Z,4.09
2023-01-03T18:14:53.789Z,4.14
2023-01-03T18:17:24.632Z,4.19
2023-01-03T18:19:53.104Z,4.25
2023-01-03T18:22:22.507Z,4.30
2023-01-03T18:24:53.747Z,4.33
2023-01-03T18:27:22.641Z,4.34
2023-01-03T18:29:51.849Z,4.37
2023-01-03T18:32:28.912Z,4.39
2023-01-03T18:34:57.039Z,4.45
2023-01-03T18:37:29.841Z,4.46
2023-01-03T18:39:58.706Z,4.46
2023-01-03T18:42:46.477Z,4.46
2023-01-03T18:45:15.334Z,4.49
2023-01-03T18:47:43.420Z,4.61
2023-01-03T18:50:19.178Z,4.61
2023-01-03T18:57:13.288Z,4.58
2023-01-03T18:59:41.835Z,4.57
2023-01-03T19:02:16.307Z,4.57
2023-01-03T19:04:51.004Z,4.59
2023-01-03T19:07:24.475Z,4.65
2023-01-03T19:09:52.058Z,4.66
2023-01-03T19:12:19.761Z,4.66
2023-01-03T19:14:47.512Z,4.64
2023-01-03T19:17:19.052Z,4.62
2023-01-03T19:19:46.752Z,4.60
2023-01-03T19:22:17.500Z,4.59
2023-01-03T19:24:45.487Z,4.59
2023-01-03T19:27:16.348Z,4.58
2023-01-03T19:29:46.597Z,4.55
2023-01-03T19:32:20.642Z,4.52
2023-01-03T19:34:49.042Z,4.51
2023-01-03T19:37:18.986Z,4.50
2023-01-03T19:39:48.393Z,4.47
2023-01-03T19:42:37.911Z,4.46
2023-01-03T19:45:23.286Z,4.43
2023-01-03T19:47:51.528Z,4.42
2023-01-03T19:50:24.889Z,4.40
2023-01-03T19:52:53.469Z,4.40
2023-01-03T19:55:29.912Z,4.40
2023-01-03T19:58:01.086Z,4.45
2023-01-03T20:00:32.321Z,4.46
2023-01-03T20:03:06.288Z,4.46
2023-01-03T20:05:36.725Z,4.46
2023-01-03T20:08:11.971Z,4.47
2023-01-03T20:10:41.849Z,4.47
2023-01-03T20:13:16.706Z,4.47
2023-01-03T20:15:47.479Z,4.44
2023-01-03T20:18:23.300Z,4.41
2023-01-03T20:20:53.669Z,4.42
2023-01-03T20:23:23.326Z,4.42
2023-01-03T20:25:52.100Z,4.41
2023-01-03T20:28:26.608Z,4.38
2023-01-03T20:30:58.317Z,4.37
2023-01-03T20:33:28.601Z,4.37
2023-01-03T20:36:14.373Z,4.35
2023-01-03T20:38:48.776Z,4.34
2023-01-03T20:41:18.264Z,4.32
2023-01-03T20:43:50.478Z,4.31
2023-01-03T20:46:25.903Z,4.30
2023-01-03T20:49:00.068Z,4.28
2023-01-03T20:51:29.477Z,4.28
2023-01-03T20:54:25.524Z,4.27
2023-01-03T20:56:53.968Z,4.28
2023-01-03T20:59:24.403Z,4.28
2023-01-03T21:01:55.138Z,4.26
2023-01-03T21:04:24.988Z,4.22
2023-01-03T21:06:54.629Z,4.17
2023-01-03T21:09:24.036Z,4.15
2023-01-03T21:11:51.936Z,4.12
2023-01-03T21:14:25.906Z,4.09
2023-01-03T21:16:57.654Z,4.07
2023-01-03T21:19:25.970Z,4.08
2023-01-03T21:21:55.536Z,4.05
2023-01-03T21:24:26.972Z,4.02
2023-01-03T21:26:56.464Z,3.98
2023-01-03T21:29:25.152Z,3.94
2023-01-03T21:31:54.494Z,3.91
2023-01-03T21:34:25.656Z,3.86
2023-01-03T21:36:55.380Z,3.78
2023-01-03T21:39:23.675Z,3.72
2023-01-03T21:42:10.198Z,3.69
2023-01-03T21:44:38.288Z,3.66
2023-01-03T21:47:06.876Z,3.62
2023-01-03T21:49:36.333Z,3.60
2023-01-03T21:52:56.207Z,3.55
2023-01-03T21:55:24.092Z,3.54
2023-01-03T21:57:51.751Z,3.55
2023-01-03T22:00:19.796Z,3.51
2023-01-03T22:03:06.371Z,3.48
2023-01-03T22:05:34.091Z,3.47
2023-01-03T22:08:02.239Z,3.44
2023-01-03T22:10:31.294Z,3.42
2023-01-03T22:13:01.919Z,3.39
2023-01-03T22:15:29.322Z,3.36
2023-01-03T22:17:57.333Z,3.34
2023-01-03T22:20:25.768Z,3.30
2023-01-03T22:22:53.715Z,3.24
2023-01-03T22:25:23.158Z,3.16
2023-01-03T22:27:55.074Z,3.08
2023-01-03T22:30:23.260Z,3.01
2023-01-03T22:32:50.794Z,2.87
2023-01-03T22:35:18.681Z,2.73
2023-01-03T22:37:46.233Z,2.59
2023-01-03T22:40:14.705Z,2.46
2023-01-03T22:42:45.321Z,2.31
2023-01-03T22:45:15.189Z,2.17
2023-01-03T22:47:42.965Z,2.08
2023-01-03T22:50:11.291Z,2.02
2023-01-03T22:57:04.840Z,1.85
2023-01-03T22:59:32.951Z,1.82
2023-01-03T23:02:02.674Z,1.78
2023-01-03T23:04:31.211Z,1.73
2023-01-03T23:06:58.735Z,1.71
2023-01-03T23:09:26.187Z,1.66
2023-01-03T23:12:14.076Z,1.59
2023-01-03T23:14:41.599Z,1.56
2023-01-03T23:17:28.171Z,1.52
2023-01-03T23:19:56.273Z,1.48
2023-01-03T23:22:24.029Z,1.48
2023-01-03T23:24:52.081Z,1.46
2023-01-03T23:27:20.625Z,1.44
2023-01-03T23:29:48.627Z,1.42
2023-01-03T23:32:18.342Z,1.39
2023-01-03T23:34:45.667Z,1.28
2023-01-03T23:37:13.159Z,1.14
2023-01-03T23:39:40.802Z,1.02
2023-01-03T23:42:09.504Z,0.91
2023-01-03T23:44:39.882Z,0.80
2023-01-03T23:47:11.973Z,0.69
2023-01-03T23:49:40.967Z,0.60
2023-01-03T23:56:33.763Z,0.46
2023-01-03T23:59:01.718Z,0.44
